Time;durP1;ratioP1;P1;durP2;ratioP2;P2;SDS_P1;SDS_P2;PMS_P1;PMS_P2;Temp;Humidity;BMP_temperature;BMP_pressure;BME280_temperature;BME280_humidity;BME280_pressure;Samples;Min_cycle;Max_cycle;Signal;HPM_P1;HPM_P2
2022/01/16 00:00:20;;;;;;;132.30;28.25;;;;;;;;;;4972377;28;107376;-71
2022/01/16 00:05:23;;;;;;;182.88;32.08;;;;;;;;;;4970710;28;106035;-69
2022/01/16 00:07:50;;;;;;;144.95;30.08;;;;;;;;;;4976467;28;106790;-69
2022/01/16 00:10:18;;;;;;;163.73;31.15;;;;;;;;;;4968818;28;106136;-70
2022/01/16 00:12:48;;;;;;;169.73;31.13;;;;;;;;;;4968950;28;107281;-68
2022/01/16 00:15:19;;;;;;;144.80;31.85;;;;;;;;;;4969566;28;106371;-68
2022/01/16 00:17:56;;;;;;;173.77;33.80;;;;;;;;;;4970389;28;106201;-69
2022/01/16 00:20:24;;;;;;;156.40;31.42;;;;;;;;;;4958587;28;107455;-69
2022/01/16 00:22:51;;;;;;;182.38;32.70;;;;;;;;;;4971343;28;105956;-69
2022/01/16 00:25:17;;;;;;;131.40;30.25;;;;;;;;;;4972226;28;106675;-69
2022/01/16 00:27:44;;;;;;;134.27;31.10;;;;;;;;;;4968888;28;106413;-69
2022/01/16 00:30:10;;;;;;;124.43;31.20;;;;;;;;;;4972280;28;106078;-70
2022/01/16 00:32:37;;;;;;;159.60;31.05;;;;;;;;;;4968183;28;108459;-70
2022/01/16 00:35:04;;;;;;;171.30;31.85;;;;;;;;;;4959019;28;106003;-69
2022/01/16 00:37:31;;;;;;;145.43;31.08;;;;;;;;;;4967915;28;106604;-69
2022/01/16 00:39:57;;;;;;;153.88;33.63;;;;;;;;;;4969416;28;107072;-69
2022/01/16 00:42:24;;;;;;;175.70;31.98;;;;;;;;;;4949813;28;106833;-70
2022/01/16 00:44:50;;;;;;;163.25;32.30;;;;;;;;;;4968702;28;107562;-69
2022/01/16 00:47:17;;;;;;;213.80;32.65;;;;;;;;;;4968535;28;108271;-69
2022/01/16 00:49:44;;;;;;;199.68;35.78;;;;;;;;;;4971945;28;108190;-70
2022/01/16 00:52:10;;;;;;;168.25;32.25;;;;;;;;;;4968259;28;106380;-70
2022/01/16 00:54:37;;;;;;;193.50;31.73;;;;;;;;;;4966873;28;107695;-70
2022/01/16 00:57:04;;;;;;;196.63;32.35;;;;;;;;;;4959336;28;109166;-69
2022/01/16 00:59:30;;;;;;;178.20;32.83;;;;;;;;;;4967496;28;108758;-69
2022/01/16 01:01:57;;;;;;;172.10;34.92;;;;;;;;;;4970218;28;108100;-70
2022/01/16 01:04:23;;;;;;;148.98;32.97;;;;;;;;;;4964923;28;106518;-71
2022/01/16 01:06:51;;;;;;;185.77;32.92;;;;;;;;;;4969232;28;107335;-69
2022/01/16 01:09:18;;;;;;;163.80;33.17;;;;;;;;;;4969525;28;105733;-70
2022/01/16 01:11:48;;;;;;;183.23;31.58;;;;;;;;;;4973408;28;106627;-69
2022/01/16 01:14:24;;;;;;;142.30;31.73;;;;;;;;;;4968938;28;105497;-69
2022/01/16 01:17:00;;;;;;;173.40;32.95;;;;;;;;;;4969098;28;106740;-69
2022/01/16 01:19:34;;;;;;;197.98;35.42;;;;;;;;;;4963816;28;106548;-69
2022/01/16 01:22:02;;;;;;;176.57;33.85;;;;;;;;;;4968204;28;105960;-69
2022/01/16 01:24:30;;;;;;;172.68;34.53;;;;;;;;;;4967961;28;105833;-69
2022/01/16 01:29:36;;;;;;;176.20;32.30;;;;;;;;;;4968775;28;106387;-69
2022/01/16 01:32:02;;;;;;;157.15;32.20;;;;;;;;;;4967701;28;108248;-69
2022/01/16 01:34:34;;;;;;;192.90;34.67;;;;;;;;;;4971098;28;106285;-68
2022/01/16 01:37:00;;;;;;;149.52;31.27;;;;;;;;;;4966922;28;107673;-69
2022/01/16 01:39:27;;;;;;;177.57;32.47;;;;;;;;;;4968482;28;106545;-69
2022/01/16 01:42:04;;;;;;;196.85;34.15;;;;;;;;;;4960425;28;107182;-69
2022/01/16 01:52:46;;;;;;;134.63;30.63;;;;;;;;;;4961135;28;107579;-69
2022/01/16 01:55:13;;;;;;;138.68;31.83;;;;;;;;;;4966974;28;106527;-69
2022/01/16 01:57:39;;;;;;;189.95;34.35;;;;;;;;;;4970025;28;105651;-69
2022/01/16 02:00:07;;;;;;;137.38;32.83;;;;;;;;;;4967921;28;106169;-68
2022/01/16 02:02:45;;;;;;;161.65;33.42;;;;;;;;;;4968520;28;106079;-69
2022/01/16 02:05:12;;;;;;;147.50;31.47;;;;;;;;;;4959786;28;106678;-69
2022/01/16 02:07:38;;;;;;;165.70;34.25;;;;;;;;;;4969393;28;106618;-68
2022/01/16 02:10:05;;;;;;;139.38;30.73;;;;;;;;;;4964472;28;106440;-69
2022/01/16 02:12:33;;;;;;;135.77;32.50;;;;;;;;;;4965430;28;108113;-68
2022/01/16 02:15:18;;;;;;;171.40;32.45;;;;;;;;;;4967956;28;107329;-69
2022/01/16 02:29:06;;;;;;;174.63;33.35;;;;;;;;;;4966161;28;106315;-69
2022/01/16 02:31:32;;;;;;;196.90;32.60;;;;;;;;;;4962883;28;107452;-69
2022/01/16 02:36:48;;;;;;;190.73;33.95;;;;;;;;;;4961867;28;107284;-69
2022/01/16 02:39:16;;;;;;;197.23;34.60;;;;;;;;;;4965054;28;107586;-70
2022/01/16 02:41:46;;;;;;;182.98;34.83;;;;;;;;;;4966625;28;106002;-69
2022/01/16 02:44:43;;;;;;;193.65;34.65;;;;;;;;;;4966661;28;106738;-69
2022/01/16 02:47:00;;;;;;;201.60;34.60;;;;;;;;;;4969038;28;108984;-69
2022/01/16 02:49:29;;;;;;;251.55;36.28;;;;;;;;;;4955427;28;106878;-70
2022/01/16 02:52:00;;;;;;;245.38;40.17;;;;;;;;;;4967090;28;106511;-69
2022/01/16 02:54:28;;;;;;;190.68;33.33;;;;;;;;;;4967889;28;107603;-70
2022/01/16 02:56:54;;;;;;;240.98;35.10;;;;;;;;;;4966288;28;106529;-70
2022/01/16 02:59:22;;;;;;;223.05;34.35;;;;;;;;;;4966782;28;105926;-69
2022/01/16 03:01:49;;;;;;;284.17;36.65;;;;;;;;;;4965442;28;106017;-69
2022/01/16 03:04:16;;;;;;;174.90;33.33;;;;;;;;;;4969406;28;106490;-69
2022/01/16 03:06:42;;;;;;;243.05;38.05;;;;;;;;;;4970963;28;106478;-70
2022/01/16 03:09:09;;;;;;;235.48;35.70;;;;;;;;;;4970459;28;107426;-69
2022/01/16 03:11:39;;;;;;;240.70;35.58;;;;;;;;;;4966204;28;106188;-69
2022/01/16 03:14:09;;;;;;;221.00;33.88;;;;;;;;;;4969501;28;106878;-69
2022/01/16 03:16:36;;;;;;;184.18;33.00;;;;;;;;;;4966131;28;108000;-69
2022/01/16 03:21:54;;;;;;;194.38;33.28;;;;;;;;;;4971073;28;106156;-70
2022/01/16 03:24:25;;;;;;;169.05;34.08;;;;;;;;;;4966845;28;109551;-70
2022/01/16 03:26:55;;;;;;;203.52;35.70;;;;;;;;;;4967356;28;106355;-70
2022/01/16 03:29:22;;;;;;;191.02;36.03;;;;;;;;;;4966921;28;106959;-70
2022/01/16 03:31:48;;;;;;;203.25;33.35;;;;;;;;;;4970183;28;106438;-69
2022/01/16 03:34:15;;;;;;;202.88;35.33;;;;;;;;;;4969874;28;106668;-70
2022/01/16 03:36:42;;;;;;;210.57;35.08;;;;;;;;;;4969404;28;106201;-70
2022/01/16 03:39:08;;;;;;;233.27;36.25;;;;;;;;;;4950999;28;106225;-71
2022/01/16 03:41:35;;;;;;;225.02;36.13;;;;;;;;;;4970171;28;107883;-70
2022/01/16 03:44:02;;;;;;;200.70;34.08;;;;;;;;;;4968921;28;107596;-70
2022/01/16 03:46:36;;;;;;;208.20;34.53;;;;;;;;;;4968785;28;107906;-70
2022/01/16 03:49:22;;;;;;;222.27;35.47;;;;;;;;;;4972852;28;106043;-70
2022/01/16 03:51:50;;;;;;;209.35;35.67;;;;;;;;;;4960641;28;106163;-69
2022/01/16 03:54:17;;;;;;;232.20;36.33;;;;;;;;;;4968859;28;106774;-69
2022/01/16 03:56:44;;;;;;;210.60;35.90;;;;;;;;;;4966633;28;108977;-71
2022/01/16 03:59:10;;;;;;;222.07;35.95;;;;;;;;;;4970845;28;106066;-69
2022/01/16 04:01:37;;;;;;;208.75;35.60;;;;;;;;;;4970967;28;107207;-70
2022/01/16 04:04:04;;;;;;;227.07;35.15;;;;;;;;;;4968953;28;108514;-69
2022/01/16 04:06:31;;;;;;;219.73;35.25;;;;;;;;;;4969877;28;105950;-69
2022/01/16 04:08:57;;;;;;;210.48;33.97;;;;;;;;;;4972246;28;106779;-69
2022/01/16 04:11:25;;;;;;;198.35;35.20;;;;;;;;;;4972877;28;107902;-70
2022/01/16 04:13:54;;;;;;;196.13;35.42;;;;;;;;;;4968465;28;106110;-69
2022/01/16 04:16:21;;;;;;;214.77;35.57;;;;;;;;;;4969029;28;107338;-69
2022/01/16 04:18:50;;;;;;;186.82;35.13;;;;;;;;;;4967999;28;106295;-69
2022/01/16 04:21:20;;;;;;;246.85;37.70;;;;;;;;;;4970825;28;106293;-70
2022/01/16 04:23:47;;;;;;;204.27;35.00;;;;;;;;;;4956695;28;107552;-69
2022/01/16 04:26:15;;;;;;;177.60;36.50;;;;;;;;;;4969540;28;105882;-70
2022/01/16 04:28:41;;;;;;;201.30;36.20;;;;;;;;;;4967618;28;106359;-70
2022/01/16 04:31:08;;;;;;;182.43;33.65;;;;;;;;;;4968587;28;106770;-71
2022/01/16 04:33:35;;;;;;;231.23;37.45;;;;;;;;;;4972500;28;106364;-69
2022/01/16 04:36:02;;;;;;;196.45;37.40;;;;;;;;;;4945694;28;107578;-69
2022/01/16 04:38:28;;;;;;;203.00;38.13;;;;;;;;;;4969336;28;106428;-70
2022/01/16 04:43:51;;;;;;;173.48;34.17;;;;;;;;;;4967890;28;107564;-70
2022/01/16 04:46:18;;;;;;;237.48;39.40;;;;;;;;;;4971263;28;105961;-68
2022/01/16 04:48:45;;;;;;;193.48;36.80;;;;;;;;;;4971088;28;106133;-69
2022/01/16 04:51:12;;;;;;;215.35;39.65;;;;;;;;;;4971719;28;106441;-69
2022/01/16 04:53:39;;;;;;;193.07;37.88;;;;;;;;;;4973240;28;105869;-69
2022/01/16 04:56:06;;;;;;;221.13;40.63;;;;;;;;;;4939464;28;109599;-69
2022/01/16 04:58:33;;;;;;;207.93;39.55;;;;;;;;;;4968205;28;106240;-68
2022/01/16 05:01:00;;;;;;;209.15;41.45;;;;;;;;;;4968691;28;106665;-69
2022/01/16 05:03:27;;;;;;;233.45;44.22;;;;;;;;;;4967111;28;107894;-70
2022/01/16 05:05:54;;;;;;;198.63;41.88;;;;;;;;;;4959438;28;106374;-69
2022/01/16 05:08:21;;;;;;;220.13;41.35;;;;;;;;;;4941748;28;106560;-70
2022/01/16 05:10:52;;;;;;;208.40;44.63;;;;;;;;;;4963748;28;108162;-70
2022/01/16 05:18:39;;;;;;;241.48;45.45;;;;;;;;;;4951067;28;106668;-70
2022/01/16 05:21:06;;;;;;;195.38;45.25;;;;;;;;;;4952813;28;106797;-69
2022/01/16 05:23:33;;;;;;;228.60;46.63;;;;;;;;;;4968767;28;107920;-69
2022/01/16 05:26:00;;;;;;;213.25;45.70;;;;;;;;;;4959500;28;106312;-69
2022/01/16 05:28:27;;;;;;;231.45;47.42;;;;;;;;;;4965967;28;107061;-70
2022/01/16 05:30:54;;;;;;;222.68;46.25;;;;;;;;;;4966558;28;108182;-69
2022/01/16 05:33:21;;;;;;;212.90;46.88;;;;;;;;;;4967353;28;106275;-69
2022/01/16 05:35:47;;;;;;;210.77;47.45;;;;;;;;;;4948916;28;107134;-69
2022/01/16 05:38:13;;;;;;;221.23;49.83;;;;;;;;;;4971584;28;108708;-70
2022/01/16 05:40:40;;;;;;;233.43;50.13;;;;;;;;;;4968492;28;107278;-70
2022/01/16 05:43:06;;;;;;;204.43;47.20;;;;;;;;;;4961302;28;107935;-69
2022/01/16 05:45:33;;;;;;;214.98;49.28;;;;;;;;;;4966487;28;107771;-70
2022/01/16 05:47:59;;;;;;;198.60;49.45;;;;;;;;;;4968693;28;107167;-69
2022/01/16 05:50:26;;;;;;;206.60;49.40;;;;;;;;;;4966483;28;107322;-70
2022/01/16 05:52:53;;;;;;;196.23;48.95;;;;;;;;;;4967969;28;106516;-69
2022/01/16 05:55:19;;;;;;;214.82;51.53;;;;;;;;;;4966450;28;106526;-69
2022/01/16 05:57:46;;;;;;;215.57;50.10;;;;;;;;;;4967464;28;107389;-69
2022/01/16 06:00:13;;;;;;;202.02;49.25;;;;;;;;;;4970420;28;106080;-70
2022/01/16 06:02:40;;;;;;;192.82;47.33;;;;;;;;;;4967358;28;106382;-69
2022/01/16 06:05:06;;;;;;;203.48;47.78;;;;;;;;;;4962100;28;106245;-69
2022/01/16 06:07:33;;;;;;;176.60;46.63;;;;;;;;;;4963511;28;106901;-69
2022/01/16 06:10:00;;;;;;;181.00;48.13;;;;;;;;;;4967405;28;107423;-69
2022/01/16 06:12:26;;;;;;;191.38;48.55;;;;;;;;;;4967628;28;106430;-69
2022/01/16 06:14:52;;;;;;;180.85;45.20;;;;;;;;;;4968028;28;107507;-69
2022/01/16 06:17:19;;;;;;;166.38;46.25;;;;;;;;;;4949884;28;107724;-70
2022/01/16 06:19:45;;;;;;;166.30;44.53;;;;;;;;;;4965789;28;106555;-70
2022/01/16 06:22:12;;;;;;;179.70;46.55;;;;;;;;;;4970552;28;107358;-70
2022/01/16 06:24:38;;;;;;;166.63;45.67;;;;;;;;;;4966404;28;107380;-70
2022/01/16 06:27:05;;;;;;;165.98;45.72;;;;;;;;;;4967719;28;106739;-69
2022/01/16 06:29:31;;;;;;;174.15;47.08;;;;;;;;;;4967241;28;106583;-70
2022/01/16 06:31:58;;;;;;;160.07;46.92;;;;;;;;;;4967939;28;107478;-70
2022/01/16 06:34:24;;;;;;;162.93;46.33;;;;;;;;;;4947532;28;108436;-71
2022/01/16 06:36:50;;;;;;;173.23;47.35;;;;;;;;;;4972439;28;106253;-69
2022/01/16 06:39:17;;;;;;;164.77;45.80;;;;;;;;;;4972636;28;106897;-69
2022/01/16 06:41:43;;;;;;;169.45;47.65;;;;;;;;;;4970866;28;107580;-69
2022/01/16 06:44:29;;;;;;;169.18;47.38;;;;;;;;;;4973419;28;107242;-69
2022/01/16 06:46:56;;;;;;;156.93;45.78;;;;;;;;;;4971837;28;107689;-70
2022/01/16 06:49:22;;;;;;;167.57;46.40;;;;;;;;;;4978092;28;107593;-69
2022/01/16 06:51:49;;;;;;;168.30;46.95;;;;;;;;;;4976447;28;106245;-70
2022/01/16 06:54:15;;;;;;;157.85;46.63;;;;;;;;;;4966315;28;107063;-70
2022/01/16 06:56:42;;;;;;;159.55;46.60;;;;;;;;;;4970597;28;106818;-70
2022/01/16 06:59:08;;;;;;;154.93;46.92;;;;;;;;;;4976031;28;106008;-70
2022/01/16 07:01:47;;;;;;;155.20;46.20;;;;;;;;;;4972780;28;107907;-69
2022/01/16 07:04:14;;;;;;;150.15;45.03;;;;;;;;;;4978471;28;107062;-70
2022/01/16 07:06:40;;;;;;;159.65;47.65;;;;;;;;;;4975784;28;106105;-70
2022/01/16 07:09:07;;;;;;;149.10;45.58;;;;;;;;;;4966777;28;106745;-72
2022/01/16 07:11:33;;;;;;;163.88;46.78;;;;;;;;;;4972787;28;106393;-70
2022/01/16 07:14:00;;;;;;;160.65;47.90;;;;;;;;;;4974939;28;106727;-70
2022/01/16 07:16:26;;;;;;;148.75;45.70;;;;;;;;;;4973507;28;106499;-71
2022/01/16 07:18:53;;;;;;;148.68;45.55;;;;;;;;;;4971314;28;106657;-70
2022/01/16 07:21:19;;;;;;;153.00;46.78;;;;;;;;;;4968054;28;109060;-70
2022/01/16 07:23:46;;;;;;;127.28;43.30;;;;;;;;;;4975463;28;106826;-69
2022/01/16 07:26:16;;;;;;;142.80;43.53;;;;;;;;;;4978098;28;106166;-69
2022/01/16 07:28:43;;;;;;;155.48;44.28;;;;;;;;;;4964068;28;106560;-70
2022/01/16 07:31:09;;;;;;;135.82;42.17;;;;;;;;;;4980390;28;105845;-69
2022/01/16 07:33:36;;;;;;;134.07;43.38;;;;;;;;;;4980271;28;106777;-70
2022/01/16 07:36:03;;;;;;;138.45;44.25;;;;;;;;;;4983941;28;107435;-71
2022/01/16 07:38:29;;;;;;;135.77;45.65;;;;;;;;;;4985852;28;106230;-71
2022/01/16 07:40:56;;;;;;;124.43;42.50;;;;;;;;;;4982863;28;106545;-70
2022/01/16 07:43:23;;;;;;;128.52;42.95;;;;;;;;;;4973513;28;107279;-71
2022/01/16 07:45:49;;;;;;;126.18;42.92;;;;;;;;;;4987153;28;105960;-71
2022/01/16 07:48:16;;;;;;;129.27;41.95;;;;;;;;;;4982733;28;106820;-71
2022/01/16 07:50:42;;;;;;;113.25;38.05;;;;;;;;;;4975265;28;106188;-71
2022/01/16 07:53:09;;;;;;;96.72;37.72;;;;;;;;;;4988897;28;107468;-72
2022/01/16 07:55:35;;;;;;;109.72;38.47;;;;;;;;;;4983599;28;108715;-71
2022/01/16 07:58:02;;;;;;;95.68;37.85;;;;;;;;;;4986019;28;106205;-71
2022/01/16 08:00:30;;;;;;;109.13;37.60;;;;;;;;;;4975137;28;106926;-72
2022/01/16 08:02:57;;;;;;;97.22;35.83;;;;;;;;;;4974607;28;106357;-70
2022/01/16 08:05:24;;;;;;;96.95;35.60;;;;;;;;;;4968979;28;108319;-71
2022/01/16 08:07:51;;;;;;;88.90;34.03;;;;;;;;;;4977129;28;107228;-70
2022/01/16 08:10:17;;;;;;;91.97;33.92;;;;;;;;;;4979220;28;108143;-71
2022/01/16 08:12:44;;;;;;;96.35;35.65;;;;;;;;;;4976681;28;107830;-70
2022/01/16 08:15:10;;;;;;;88.55;34.28;;;;;;;;;;4952130;28;106784;-71
2022/01/16 08:17:37;;;;;;;86.05;32.47;;;;;;;;;;4947873;28;106429;-71
2022/01/16 08:20:08;;;;;;;78.38;32.05;;;;;;;;;;4967648;28;106294;-71
2022/01/16 08:22:35;;;;;;;76.07;31.55;;;;;;;;;;4962958;28;107029;-71
2022/01/16 08:25:02;;;;;;;82.72;31.20;;;;;;;;;;4967837;28;107734;-70
2022/01/16 08:27:28;;;;;;;77.47;30.95;;;;;;;;;;4950027;28;107256;-70
2022/01/16 08:29:55;;;;;;;75.13;29.58;;;;;;;;;;4950469;28;109676;-70
2022/01/16 08:32:21;;;;;;;68.70;28.30;;;;;;;;;;4971818;28;105578;-70
2022/01/16 08:34:48;;;;;;;69.90;30.17;;;;;;;;;;4967821;28;106983;-69
2022/01/16 08:37:15;;;;;;;73.30;29.60;;;;;;;;;;4948702;28;106444;-70
2022/01/16 08:39:41;;;;;;;72.15;29.15;;;;;;;;;;4968928;28;106856;-70
2022/01/16 08:42:08;;;;;;;73.50;28.13;;;;;;;;;;4961892;28;106387;-73
2022/01/16 08:44:34;;;;;;;67.75;27.17;;;;;;;;;;4970048;28;106233;-72
2022/01/16 08:47:01;;;;;;;63.75;26.48;;;;;;;;;;4960818;28;109621;-71
2022/01/16 08:49:27;;;;;;;61.45;25.00;;;;;;;;;;4970739;28;107637;-70
2022/01/16 08:51:55;;;;;;;64.90;26.42;;;;;;;;;;4967400;28;107247;-71
2022/01/16 08:54:21;;;;;;;57.38;25.92;;;;;;;;;;4975730;28;108244;-71
2022/01/16 08:56:48;;;;;;;55.97;24.30;;;;;;;;;;4966714;28;106187;-71
2022/01/16 08:59:14;;;;;;;59.70;25.23;;;;;;;;;;4962791;28;107162;-72
2022/01/16 09:01:40;;;;;;;56.90;23.88;;;;;;;;;;4964699;28;107792;-71
2022/01/16 09:04:07;;;;;;;56.28;23.85;;;;;;;;;;4970648;28;106020;-71
2022/01/16 09:06:33;;;;;;;55.17;24.05;;;;;;;;;;4971411;28;106822;-71
2022/01/16 09:09:00;;;;;;;52.92;22.02;;;;;;;;;;4965462;28;107392;-71
2022/01/16 09:11:27;;;;;;;50.88;22.77;;;;;;;;;;4971463;28;106151;-72
2022/01/16 09:13:54;;;;;;;48.55;22.33;;;;;;;;;;4973166;28;105903;-71
2022/01/16 09:16:20;;;;;;;47.78;21.98;;;;;;;;;;4968139;28;106363;-72
2022/01/16 09:18:48;;;;;;;48.85;21.55;;;;;;;;;;4973167;28;106893;-72
2022/01/16 09:21:16;;;;;;;51.55;21.20;;;;;;;;;;4963939;28;107411;-72
2022/01/16 09:23:44;;;;;;;50.90;21.58;;;;;;;;;;4963251;28;107464;-71
2022/01/16 09:26:10;;;;;;;57.53;23.17;;;;;;;;;;4950696;28;107022;-72
2022/01/16 09:28:36;;;;;;;61.08;23.85;;;;;;;;;;4969191;28;108729;-71
2022/01/16 09:31:04;;;;;;;55.15;22.25;;;;;;;;;;4968447;28;107290;-71
2022/01/16 09:33:30;;;;;;;51.78;21.80;;;;;;;;;;4966141;28;106657;-71
2022/01/16 09:36:00;;;;;;;56.50;21.83;;;;;;;;;;4962582;28;108107;-72
2022/01/16 09:38:27;;;;;;;56.42;23.08;;;;;;;;;;4967409;28;106931;-72
2022/01/16 09:40:54;;;;;;;66.00;24.65;;;;;;;;;;4970872;28;108322;-72
2022/01/16 09:43:21;;;;;;;62.63;23.50;;;;;;;;;;4935181;28;106671;-72
2022/01/16 09:45:48;;;;;;;65.38;23.67;;;;;;;;;;4965166;28;107531;-72
2022/01/16 09:48:18;;;;;;;73.93;27.80;;;;;;;;;;4970818;28;107440;-72
2022/01/16 09:50:44;;;;;;;69.03;26.02;;;;;;;;;;4964802;28;106399;-72
2022/01/16 09:53:12;;;;;;;78.53;26.35;;;;;;;;;;4965840;28;106878;-73
2022/01/16 09:55:39;;;;;;;65.03;25.25;;;;;;;;;;4968550;28;107905;-72
2022/01/16 09:58:05;;;;;;;75.63;26.27;;;;;;;;;;4969514;28;106502;-72
2022/01/16 10:00:32;;;;;;;76.35;26.30;;;;;;;;;;4968844;28;108103;-71
2022/01/16 10:02:58;;;;;;;83.90;28.83;;;;;;;;;;4961756;28;106066;-71
2022/01/16 10:05:37;;;;;;;84.90;29.20;;;;;;;;;;4980073;28;106304;-71
2022/01/16 10:08:04;;;;;;;88.38;29.23;;;;;;;;;;4966047;28;107362;-71
2022/01/16 10:10:44;;;;;;;85.70;29.15;;;;;;;;;;4970317;28;106301;-70
2022/01/16 10:13:21;;;;;;;89.22;30.92;;;;;;;;;;4974682;28;108171;-71
2022/01/16 10:15:54;;;;;;;88.28;29.67;;;;;;;;;;4960027;28;106809;-72
2022/01/16 10:18:38;;;;;;;97.18;30.88;;;;;;;;;;4952618;28;107104;-71
2022/01/16 10:21:05;;;;;;;88.50;28.35;;;;;;;;;;4971054;28;108844;-71
2022/01/16 10:23:37;;;;;;;94.68;31.45;;;;;;;;;;4967395;28;106543;-71
2022/01/16 10:26:04;;;;;;;95.97;31.88;;;;;;;;;;4949103;28;110553;-74
2022/01/16 10:28:33;;;;;;;97.47;31.63;;;;;;;;;;4953374;28;106355;-71
2022/01/16 10:30:59;;;;;;;106.73;33.27;;;;;;;;;;4973752;28;106221;-71
2022/01/16 10:33:27;;;;;;;105.63;33.03;;;;;;;;;;4966842;28;105977;-72
2022/01/16 10:35:55;;;;;;;108.53;32.65;;;;;;;;;;4967936;28;108224;-71
2022/01/16 10:38:26;;;;;;;111.45;31.35;;;;;;;;;;4972826;28;106208;-73
2022/01/16 10:40:54;;;;;;;119.15;33.00;;;;;;;;;;4965931;28;107116;-71
2022/01/16 10:43:40;;;;;;;121.88;34.00;;;;;;;;;;4959973;28;109141;-71
2022/01/16 10:46:08;;;;;;;115.72;34.38;;;;;;;;;;4957559;28;109141;-71
2022/01/16 10:49:12;;;;;;;100.93;31.92;;;;;;;;;;4965069;28;107731;-72
2022/01/16 10:51:39;;;;;;;101.15;31.80;;;;;;;;;;4968268;28;106131;-71
2022/01/16 10:54:27;;;;;;;108.65;33.20;;;;;;;;;;4972745;28;106755;-72
2022/01/16 10:56:54;;;;;;;118.80;31.40;;;;;;;;;;4976642;28;107766;-71
2022/01/16 10:59:21;;;;;;;120.90;33.13;;;;;;;;;;4973882;28;106186;-72
2022/01/16 11:02:06;;;;;;;98.85;29.77;;;;;;;;;;4972279;28;106579;-71
2022/01/16 11:04:33;;;;;;;125.85;31.83;;;;;;;;;;4949491;28;109467;-71
2022/01/16 11:07:03;;;;;;;131.63;35.42;;;;;;;;;;4979472;28;107001;-69
2022/01/16 11:09:31;;;;;;;86.68;26.77;;;;;;;;;;4966735;28;108295;-75
2022/01/16 11:11:59;;;;;;;123.22;33.75;;;;;;;;;;4968107;28;106479;-70
2022/01/16 11:14:26;;;;;;;122.70;32.20;;;;;;;;;;4968155;28;106180;-71
2022/01/16 11:16:54;;;;;;;134.52;35.22;;;;;;;;;;4968495;28;109423;-69
2022/01/16 11:19:23;;;;;;;123.82;35.60;;;;;;;;;;4970299;28;106019;-70
2022/01/16 11:21:53;;;;;;;129.13;34.33;;;;;;;;;;4965759;28;107905;-70
2022/01/16 11:24:32;;;;;;;142.95;34.15;;;;;;;;;;4968246;28;106458;-70
2022/01/16 11:26:59;;;;;;;103.47;28.52;;;;;;;;;;4970544;28;106234;-69
2022/01/16 11:29:27;;;;;;;131.65;33.30;;;;;;;;;;4970040;28;106207;-69
2022/01/16 11:31:54;;;;;;;134.05;33.38;;;;;;;;;;4971399;28;106071;-69
2022/01/16 11:34:21;;;;;;;128.40;34.33;;;;;;;;;;4952020;28;108595;-69
2022/01/16 11:36:47;;;;;;;122.50;32.65;;;;;;;;;;4955653;28;107321;-68
2022/01/16 11:39:14;;;;;;;120.85;31.23;;;;;;;;;;4965649;28;107737;-71
2022/01/16 11:41:52;;;;;;;119.13;32.22;;;;;;;;;;4967827;28;107000;-70
2022/01/16 11:44:27;;;;;;;120.32;31.90;;;;;;;;;;4968729;28;107605;-73
2022/01/16 11:46:59;;;;;;;118.05;31.75;;;;;;;;;;4970000;28;106277;-75
2022/01/16 11:49:36;;;;;;;131.10;32.20;;;;;;;;;;4971894;28;106443;-72
2022/01/16 11:52:07;;;;;;;123.78;30.98;;;;;;;;;;4970657;28;106427;-72
2022/01/16 11:54:35;;;;;;;114.38;30.65;;;;;;;;;;4967689;28;109693;-73
2022/01/16 11:57:01;;;;;;;120.72;32.75;;;;;;;;;;4967799;28;107415;-73
2022/01/16 11:59:35;;;;;;;135.13;35.42;;;;;;;;;;4967567;28;106410;-73
2022/01/16 12:02:07;;;;;;;133.50;32.35;;;;;;;;;;4968536;28;107114;-72
2022/01/16 12:04:33;;;;;;;129.50;33.95;;;;;;;;;;4949923;28;108053;-72
2022/01/16 12:07:12;;;;;;;128.65;32.63;;;;;;;;;;4969078;28;107159;-72
2022/01/16 12:12:11;;;;;;;134.85;33.55;;;;;;;;;;4971484;28;106355;-72
2022/01/16 12:14:46;;;;;;;133.68;34.83;;;;;;;;;;4969438;28;106684;-72
2022/01/16 12:17:25;;;;;;;137.07;35.40;;;;;;;;;;4967515;28;107301;-72
2022/01/16 12:19:52;;;;;;;137.90;34.43;;;;;;;;;;4947875;28;107330;-72
2022/01/16 12:22:40;;;;;;;130.77;33.03;;;;;;;;;;4969160;28;106377;-72
2022/01/16 12:25:08;;;;;;;136.55;33.75;;;;;;;;;;4950841;28;109386;-72
2022/01/16 12:27:37;;;;;;;134.98;33.50;;;;;;;;;;4962118;28;106496;-72
2022/01/16 12:30:13;;;;;;;129.10;36.50;;;;;;;;;;4951853;28;106742;-72
2022/01/16 12:32:52;;;;;;;122.72;32.83;;;;;;;;;;4964823;28;107562;-73
2022/01/16 12:35:37;;;;;;;136.05;35.45;;;;;;;;;;4972154;28;106279;-73
2022/01/16 12:38:23;;;;;;;126.95;34.25;;;;;;;;;;4949204;28;107599;-72
2022/01/16 12:40:58;;;;;;;127.78;34.78;;;;;;;;;;4969020;28;105975;-72
2022/01/16 12:43:31;;;;;;;127.93;34.13;;;;;;;;;;4958857;28;106985;-71
2022/01/16 12:45:58;;;;;;;122.28;31.58;;;;;;;;;;4967950;28;107305;-73
2022/01/16 12:48:25;;;;;;;117.55;33.38;;;;;;;;;;4963845;28;106149;-71
2022/01/16 12:50:58;;;;;;;123.15;32.83;;;;;;;;;;4968488;28;105949;-73
2022/01/16 12:53:35;;;;;;;115.53;32.30;;;;;;;;;;4948560;28;109578;-71
2022/01/16 12:56:21;;;;;;;113.60;32.97;;;;;;;;;;4967980;28;106626;-71
2022/01/16 12:58:48;;;;;;;106.97;31.55;;;;;;;;;;4952506;28;106793;-73
2022/01/16 13:01:15;;;;;;;104.78;31.98;;;;;;;;;;4947280;28;106106;-73
2022/01/16 13:03:45;;;;;;;96.30;30.45;;;;;;;;;;4967702;28;107963;-71
2022/01/16 13:06:18;;;;;;;102.70;31.20;;;;;;;;;;4968483;28;106343;-73
2022/01/16 13:09:04;;;;;;;93.55;29.25;;;;;;;;;;4946355;28;106509;-73
2022/01/16 13:11:32;;;;;;;95.82;30.05;;;;;;;;;;4944242;28;106303;-81
2022/01/16 13:13:59;;;;;;;92.50;29.57;;;;;;;;;;4947291;28;106358;-76
2022/01/16 13:16:30;;;;;;;99.28;30.15;;;;;;;;;;4937760;28;106560;-71
2022/01/16 13:19:01;;;;;;;90.50;29.45;;;;;;;;;;4940765;28;108959;-73
2022/01/16 13:21:34;;;;;;;96.68;30.45;;;;;;;;;;4950195;28;107194;-72
2022/01/16 13:24:00;;;;;;;93.95;31.13;;;;;;;;;;4962706;28;109992;-72
2022/01/16 13:26:27;;;;;;;91.20;30.95;;;;;;;;;;4943872;28;107472;-73
2022/01/16 13:29:00;;;;;;;97.93;29.45;;;;;;;;;;4945918;28;107602;-73
2022/01/16 13:31:36;;;;;;;81.20;29.13;;;;;;;;;;4944932;28;106776;-73
2022/01/16 13:34:10;;;;;;;84.13;29.98;;;;;;;;;;4942878;28;107511;-72
2022/01/16 13:36:37;;;;;;;80.75;27.73;;;;;;;;;;4944705;28;106353;-73
2022/01/16 13:39:04;;;;;;;75.95;26.77;;;;;;;;;;4943836;28;106664;-73
2022/01/16 13:41:31;;;;;;;68.97;25.70;;;;;;;;;;4947556;28;106835;-74
2022/01/16 13:43:58;;;;;;;76.32;26.85;;;;;;;;;;4944173;28;107196;-73
2022/01/16 13:46:26;;;;;;;79.68;27.05;;;;;;;;;;4941261;28;106795;-71
2022/01/16 13:48:58;;;;;;;74.75;26.13;;;;;;;;;;4938299;28;106100;-73
2022/01/16 13:51:30;;;;;;;77.47;25.70;;;;;;;;;;4946601;28;106260;-74
2022/01/16 13:54:08;;;;;;;66.72;23.27;;;;;;;;;;4947959;28;106461;-73
2022/01/16 13:56:37;;;;;;;62.28;22.35;;;;;;;;;;4961021;28;106161;-74
2022/01/16 13:59:09;;;;;;;62.75;22.85;;;;;;;;;;4931736;28;108377;-71
2022/01/16 14:01:39;;;;;;;55.78;20.88;;;;;;;;;;4937611;28;109483;-71
2022/01/16 14:04:13;;;;;;;61.30;22.30;;;;;;;;;;4948507;28;106235;-73
2022/01/16 14:06:48;;;;;;;60.53;20.88;;;;;;;;;;4946173;28;107508;-73
2022/01/16 14:09:14;;;;;;;56.20;20.42;;;;;;;;;;4963728;28;106816;-73
2022/01/16 14:11:43;;;;;;;50.00;19.98;;;;;;;;;;4968161;28;107934;-70
2022/01/16 14:14:10;;;;;;;58.28;20.35;;;;;;;;;;4964229;28;107981;-71
2022/01/16 14:16:41;;;;;;;49.58;19.48;;;;;;;;;;4965134;28;106379;-71
2022/01/16 14:19:11;;;;;;;50.97;19.63;;;;;;;;;;4958397;28;106107;-73
2022/01/16 14:22:10;;;;;;;54.28;19.95;;;;;;;;;;4966233;28;106686;-71
2022/01/16 14:24:41;;;;;;;45.38;18.17;;;;;;;;;;4965368;28;106091;-70
2022/01/16 14:27:35;;;;;;;51.95;20.33;;;;;;;;;;4963779;28;107879;-71
2022/01/16 14:30:03;;;;;;;51.78;20.60;;;;;;;;;;4961997;28;105992;-73
2022/01/16 14:32:30;;;;;;;52.13;20.13;;;;;;;;;;4961800;28;106882;-72
2022/01/16 14:34:58;;;;;;;51.10;19.77;;;;;;;;;;4959787;28;106704;-72
2022/01/16 14:37:25;;;;;;;56.28;20.63;;;;;;;;;;4956956;28;106705;-72
2022/01/16 14:39:52;;;;;;;61.50;22.08;;;;;;;;;;4962458;28;108419;-72
2022/01/16 14:42:29;;;;;;;60.25;22.65;;;;;;;;;;4965470;28;106531;-72
2022/01/16 14:44:55;;;;;;;58.08;22.38;;;;;;;;;;4960884;28;106426;-72
2022/01/16 14:47:23;;;;;;;68.10;23.63;;;;;;;;;;4956856;28;108614;-73